sensor_id;sensor_type;location;lat;lon;timestamp;pressure;altitude;pressure_sealevel;temperature;humidity
70930;BME280;58588;48.102;19.682;2023-02-21T00:01:48;99228.13;;;7.58;100.00
70930;BME280;58588;48.102;19.682;2023-02-21T00:05:07;99219.56;;;7.54;100.00
70930;BME280;58588;48.102;19.682;2023-02-21T00:08:28;99219.22;;;7.57;100.00
70930;BME280;58588;48.102;19.682;2023-02-21T00:11:47;99212.03;;;7.58;100.00
70930;BME280;58588;48.102;19.682;2023-02-21T00:15:07;99210.34;;;7.57;100.00
70930;BME280;58588;48.102;19.682;2023-02-21T00:18:27;99211.31;;;7.64;100.00
70930;BME280;58588;48.102;19.682;2023-02-21T00:21:46;99211.34;;;7.56;100.00
70930;BME280;58588;48.102;19.682;2023-02-21T00:25:07;99218.41;;;7.57;100.00
70930;BME280;58588;48.102;19.682;2023-02-21T00:28:26;99215.38;;;7.51;100.00
70930;BME280;58588;48.102;19.682;2023-02-21T00:31:46;99211.38;;;7.47;100.00
70930;BME280;58588;48.102;19.682;2023-02-21T00:35:05;99218.75;;;7.45;100.00
70930;BME280;58588;48.102;19.682;2023-02-21T00:38:25;99203.00;;;7.50;100.00
70930;BME280;58588;48.102;19.682;2023-02-21T00:41:45;99204.84;;;7.50;100.00
70930;BME280;58588;48.102;19.682;2023-02-21T00:45:05;99201.66;;;7.46;100.00
70930;BME280;58588;48.102;19.682;2023-02-21T00:48:24;99192.00;;;7.29;100.00
70930;BME280;58588;48.102;19.682;2023-02-21T00:51:44;99193.66;;;7.30;100.00
70930;BME280;58588;48.102;19.682;2023-02-21T00:55:04;99193.88;;;7.12;100.00
70930;BME280;58588;48.102;19.682;2023-02-21T00:58:24;99188.69;;;7.11;100.00
70930;BME280;58588;48.102;19.682;2023-02-21T01:01:44;99188.88;;;7.09;100.00
70930;BME280;58588;48.102;19.682;2023-02-21T01:05:04;99182.31;;;7.20;100.00
70930;BME280;58588;48.102;19.682;2023-02-21T01:08:23;99183.63;;;7.24;100.00
70930;BME280;58588;48.102;19.682;2023-02-21T01:11:43;99184.28;;;7.34;100.00
70930;BME280;58588;48.102;19.682;2023-02-21T01:15:04;99185.91;;;7.43;100.00
70930;BME280;58588;48.102;19.682;2023-02-21T01:18:23;99185.88;;;7.51;100.00
70930;BME280;58588;48.102;19.682;2023-02-21T01:21:43;99172.09;;;7.63;100.00
70930;BME280;58588;48.102;19.682;2023-02-21T01:25:02;99173.63;;;7.57;100.00
70930;BME280;58588;48.102;19.682;2023-02-21T01:28:21;99169.28;;;7.48;100.00
70930;BME280;58588;48.102;19.682;2023-02-21T01:31:43;99166.19;;;7.67;100.00
70930;BME280;58588;48.102;19.682;2023-02-21T01:35:02;99160.34;;;7.64;100.00
70930;BME280;58588;48.102;19.682;2023-02-21T01:38:21;99153.63;;;7.68;100.00
70930;BME280;58588;48.102;19.682;2023-02-21T01:41:42;99150.59;;;7.71;100.00
70930;BME280;58588;48.102;19.682;2023-02-21T01:45:39;99137.66;;;7.74;100.00
70930;BME280;58588;48.102;19.682;2023-02-21T01:49:05;99135.63;;;7.76;100.00
70930;BME280;58588;48.102;19.682;2023-02-21T01:52:26;99126.09;;;7.74;100.00
70930;BME280;58588;48.102;19.682;2023-02-21T01:55:46;99132.75;;;7.78;100.00
70930;BME280;58588;48.102;19.682;2023-02-21T01:59:05;99119.53;;;7.76;100.00
70930;BME280;58588;48.102;19.682;2023-02-21T02:02:28;99117.44;;;7.64;100.00
70930;BME280;58588;48.102;19.682;2023-02-21T02:05:54;99113.09;;;7.55;100.00
70930;BME280;58588;48.102;19.682;2023-02-21T02:09:15;99114.94;;;7.23;100.00
70930;BME280;58588;48.102;19.682;2023-02-21T02:13:09;99109.16;;;6.95;100.00
70930;BME280;58588;48.102;19.682;2023-02-21T02:16:20;99107.25;;;6.73;100.00
70930;BME280;58588;48.102;19.682;2023-02-21T02:20:02;99104.06;;;6.69;100.00
70930;BME280;58588;48.102;19.682;2023-02-21T02:23:38;99098.00;;;6.75;100.00
70930;BME280;58588;48.102;19.682;2023-02-21T02:34:30;99085.13;;;6.79;100.00
70930;BME280;58588;48.102;19.682;2023-02-21T02:37:41;99084.44;;;6.77;100.00
70930;BME280;58588;48.102;19.682;2023-02-21T02:40:50;99082.28;;;6.64;100.00
70930;BME280;58588;48.102;19.682;2023-02-21T02:44:01;99083.66;;;6.52;100.00
70930;BME280;58588;48.102;19.682;2023-02-21T02:47:09;99083.50;;;6.45;100.00
70930;BME280;58588;48.102;19.682;2023-02-21T02:50:15;99090.34;;;6.48;100.00
70930;BME280;58588;48.102;19.682;2023-02-21T02:53:20;99093.41;;;6.36;100.00
70930;BME280;58588;48.102;19.682;2023-02-21T02:56:22;99088.72;;;6.38;100.00
70930;BME280;58588;48.102;19.682;2023-02-21T02:59:27;99087.88;;;6.38;100.00
70930;BME280;58588;48.102;19.682;2023-02-21T03:02:55;99097.22;;;6.50;100.00
70930;BME280;58588;48.102;19.682;2023-02-21T03:06:12;99093.72;;;6.50;100.00
70930;BME280;58588;48.102;19.682;2023-02-21T03:09:25;99096.00;;;6.69;100.00
70930;BME280;58588;48.102;19.682;2023-02-21T03:12:35;99098.19;;;6.74;100.00
70930;BME280;58588;48.102;19.682;2023-02-21T03:15:44;99092.97;;;6.80;100.00
70930;BME280;58588;48.102;19.682;2023-02-21T03:18:51;99096.63;;;6.87;100.00
70930;BME280;58588;48.102;19.682;2023-02-21T03:21:59;99102.97;;;6.94;100.00
70930;BME280;58588;48.102;19.682;2023-02-21T03:25:03;99106.66;;;6.93;100.00
70930;BME280;58588;48.102;19.682;2023-02-21T03:28:05;99109.53;;;6.92;100.00
70930;BME280;58588;48.102;19.682;2023-02-21T03:31:08;99111.38;;;6.83;100.00
70930;BME280;58588;48.102;19.682;2023-02-21T03:34:12;99117.38;;;6.93;100.00
70930;BME280;58588;48.102;19.682;2023-02-21T03:37:27;99113.38;;;6.89;100.00
70930;BME280;58588;48.102;19.682;2023-02-21T03:40:32;99115.03;;;6.98;100.00
70930;BME280;58588;48.102;19.682;2023-02-21T03:43:34;99113.69;;;7.03;100.00
70930;BME280;58588;48.102;19.682;2023-02-21T03:46:36;99125.72;;;7.07;100.00
70930;BME280;58588;48.102;19.682;2023-02-21T03:49:38;99125.00;;;7.21;100.00
70930;BME280;58588;48.102;19.682;2023-02-21T03:52:42;99115.50;;;7.10;100.00
70930;BME280;58588;48.102;19.682;2023-02-21T03:55:44;99125.34;;;7.18;100.00
70930;BME280;58588;48.102;19.682;2023-02-21T03:58:46;99125.81;;;7.30;100.00
70930;BME280;58588;48.102;19.682;2023-02-21T04:01:48;99128.16;;;7.33;100.00
70930;BME280;58588;48.102;19.682;2023-02-21T04:04:50;99124.44;;;7.34;100.00
70930;BME280;58588;48.102;19.682;2023-02-21T04:07:53;99131.63;;;7.41;100.00
70930;BME280;58588;48.102;19.682;2023-02-21T04:10:55;99128.41;;;7.46;100.00
70930;BME280;58588;48.102;19.682;2023-02-21T04:13:57;99134.25;;;7.49;100.00
70930;BME280;58588;48.102;19.682;2023-02-21T04:16:59;99136.78;;;7.43;100.00
70930;BME280;58588;48.102;19.682;2023-02-21T04:20:02;99127.91;;;7.42;100.00
70930;BME280;58588;48.102;19.682;2023-02-21T04:23:05;99126.78;;;7.37;100.00
70930;BME280;58588;48.102;19.682;2023-02-21T04:26:07;99129.59;;;7.43;100.00
70930;BME280;58588;48.102;19.682;2023-02-21T04:29:10;99122.41;;;7.44;100.00
70930;BME280;58588;48.102;19.682;2023-02-21T04:32:12;99112.50;;;7.44;100.00
70930;BME280;58588;48.102;19.682;2023-02-21T04:35:14;99107.78;;;7.46;100.00
70930;BME280;58588;48.102;19.682;2023-02-21T04:38:18;99102.94;;;7.42;100.00
70930;BME280;58588;48.102;19.682;2023-02-21T04:41:20;99093.28;;;7.33;100.00
70930;BME280;58588;48.102;19.682;2023-02-21T04:44:22;99091.31;;;7.27;100.00
70930;BME280;58588;48.102;19.682;2023-02-21T04:47:24;99091.69;;;7.15;100.00
70930;BME280;58588;48.102;19.682;2023-02-21T04:50:26;99088.59;;;6.87;100.00
70930;BME280;58588;48.102;19.682;2023-02-21T04:53:30;99090.16;;;6.74;100.00
70930;BME280;58588;48.102;19.682;2023-02-21T04:56:32;99080.97;;;6.68;100.00
70930;BME280;58588;48.102;19.682;2023-02-21T04:59:34;99077.97;;;6.55;100.00
70930;BME280;58588;48.102;19.682;2023-02-21T05:02:37;99079.13;;;6.52;100.00
70930;BME280;58588;48.102;19.682;2023-02-21T05:05:39;99076.13;;;6.47;100.00
70930;BME280;58588;48.102;19.682;2023-02-21T05:08:42;99082.47;;;6.62;100.00
70930;BME280;58588;48.102;19.682;2023-02-21T05:11:44;99073.56;;;6.70;100.00
70930;BME280;58588;48.102;19.682;2023-02-21T05:14:46;99072.56;;;6.71;100.00
70930;BME280;58588;48.102;19.682;2023-02-21T05:17:48;99079.25;;;6.75;100.00
70930;BME280;58588;48.102;19.682;2023-02-21T05:20:51;99067.53;;;6.76;100.00
70930;BME280;58588;48.102;19.682;2023-02-21T05:23:54;99067.06;;;6.73;100.00
70930;BME280;58588;48.102;19.682;2023-02-21T05:26:56;99070.53;;;6.81;100.00
70930;BME280;58588;48.102;19.682;2023-02-21T05:29:59;99068.13;;;6.94;100.00
70930;BME280;58588;48.102;19.682;2023-02-21T05:33:01;99071.47;;;7.05;100.00
70930;BME280;58588;48.102;19.682;2023-02-21T05:36:03;99070.38;;;7.22;100.00
70930;BME280;58588;48.102;19.682;2023-02-21T05:39:08;99070.97;;;7.40;100.00
70930;BME280;58588;48.102;19.682;2023-02-21T05:42:10;99069.03;;;7.26;100.00
70930;BME280;58588;48.102;19.682;2023-02-21T05:45:12;99083.59;;;7.23;100.00
70930;BME280;58588;48.102;19.682;2023-02-21T05:48:14;99081.44;;;7.19;100.00
70930;BME280;58588;48.102;19.682;2023-02-21T05:51:16;99089.94;;;7.31;100.00
70930;BME280;58588;48.102;19.682;2023-02-21T05:54:20;99090.38;;;7.42;100.00
70930;BME280;58588;48.102;19.682;2023-02-21T05:57:23;99095.78;;;7.34;100.00
70930;BME280;58588;48.102;19.682;2023-02-21T06:00:26;99092.16;;;7.27;100.00
70930;BME280;58588;48.102;19.682;2023-02-21T06:03:29;99093.28;;;7.33;100.00
70930;BME280;58588;48.102;19.682;2023-02-21T06:06:32;99103.66;;;7.36;100.00
70930;BME280;58588;48.102;19.682;2023-02-21T06:09:36;99097.97;;;7.31;100.00
70930;BME280;58588;48.102;19.682;2023-02-21T06:12:38;99096.31;;;7.30;100.00
70930;BME280;58588;48.102;19.682;2023-02-21T06:15:40;99105.31;;;7.37;100.00
70930;BME280;58588;48.102;19.682;2023-02-21T06:18:42;99114.13;;;7.54;100.00
70930;BME280;58588;48.102;19.682;2023-02-21T06:21:44;99115.19;;;7.44;100.00
70930;BME280;58588;48.102;19.682;2023-02-21T06:24:48;99132.56;;;7.57;100.00
70930;BME280;58588;48.102;19.682;2023-02-21T06:27:50;99136.06;;;7.57;100.00
70930;BME280;58588;48.102;19.682;2023-02-21T06:30:52;99134.63;;;7.77;100.00
70930;BME280;58588;48.102;19.682;2023-02-21T06:33:54;99156.38;;;7.83;100.00
70930;BME280;58588;48.102;19.682;2023-02-21T06:36:56;99147.69;;;7.81;100.00
70930;BME280;58588;48.102;19.682;2023-02-21T06:39:59;99122.47;;;7.90;100.00
70930;BME280;58588;48.102;19.682;2023-02-21T06:43:04;99130.81;;;7.95;100.00
70930;BME280;58588;48.102;19.682;2023-02-21T06:46:06;99140.72;;;7.94;100.00
70930;BME280;58588;48.102;19.682;2023-02-21T06:49:08;99146.59;;;7.98;100.00
70930;BME280;58588;48.102;19.682;2023-02-21T06:52:10;99144.16;;;8.03;100.00
70930;BME280;58588;48.102;19.682;2023-02-21T06:55:19;99147.97;;;8.17;100.00
70930;BME280;58588;48.102;19.682;2023-02-21T06:58:21;99154.91;;;8.26;100.00
70930;BME280;58588;48.102;19.682;2023-02-21T07:01:24;99159.66;;;8.24;100.00
70930;BME280;58588;48.102;19.682;2023-02-21T07:04:27;99166.09;;;8.38;100.00
70930;BME280;58588;48.102;19.682;2023-02-21T07:07:29;99165.56;;;8.42;100.00
70930;BME280;58588;48.102;19.682;2023-02-21T07:10:32;99163.38;;;8.46;100.00
70930;BME280;58588;48.102;19.682;2023-02-21T07:13:34;99168.19;;;8.50;100.00
70930;BME280;58588;48.102;19.682;2023-02-21T07:16:37;99162.09;;;8.56;100.00
70930;BME280;58588;48.102;19.682;2023-02-21T07:19:39;99170.75;;;8.67;100.00
70930;BME280;58588;48.102;19.682;2023-02-21T07:22:41;99165.91;;;8.62;100.00
70930;BME280;58588;48.102;19.682;2023-02-21T07:25:45;99162.03;;;8.65;100.00
70930;BME280;58588;48.102;19.682;2023-02-21T07:28:47;99162.97;;;8.72;100.00
70930;BME280;58588;48.102;19.682;2023-02-21T07:31:49;99145.38;;;8.84;100.00
70930;BME280;58588;48.102;19.682;2023-02-21T07:34:51;99140.19;;;8.97;100.00
70930;BME280;58588;48.102;19.682;2023-02-21T07:37:54;99141.72;;;9.00;100.00
70930;BME280;58588;48.102;19.682;2023-02-21T07:40:59;99139.09;;;9.06;100.00
70930;BME280;58588;48.102;19.682;2023-02-21T07:44:01;99135.69;;;9.13;100.00
70930;BME280;58588;48.102;19.682;2023-02-21T07:47:03;99141.06;;;9.13;100.00
70930;BME280;58588;48.102;19.682;2023-02-21T07:50:06;99127.50;;;9.21;100.00
70930;BME280;58588;48.102;19.682;2023-02-21T07:53:09;99126.22;;;9.31;100.00
70930;BME280;58588;48.102;19.682;2023-02-21T07:56:13;99133.41;;;9.46;100.00
70930;BME280;58588;48.102;19.682;2023-02-21T07:59:15;99125.53;;;9.44;100.00
70930;BME280;58588;48.102;19.682;2023-02-21T08:02:17;99126.00;;;9.48;100.00
70930;BME280;58588;48.102;19.682;2023-02-21T08:05:20;99129.22;;;9.58;100.00
70930;BME280;58588;48.102;19.682;2023-02-21T08:08:22;99136.09;;;9.60;100.00
70930;BME280;58588;48.102;19.682;2023-02-21T08:11:25;99128.38;;;9.72;100.00
70930;BME280;58588;48.102;19.682;2023-02-21T08:14:27;99140.34;;;9.70;100.00
70930;BME280;58588;48.102;19.682;2023-02-21T08:17:29;99122.09;;;9.86;100.00
70930;BME280;58588;48.102;19.682;2023-02-21T08:20:31;99130.66;;;9.90;100.00
70930;BME280;58588;48.102;19.682;2023-02-21T08:23:34;99141.84;;;9.93;100.00
70930;BME280;58588;48.102;19.682;2023-02-21T08:26:38;99134.94;;;10.06;100.00
70930;BME280;58588;48.102;19.682;2023-02-21T08:29:41;99128.34;;;10.08;100.00
70930;BME280;58588;48.102;19.682;2023-02-21T08:32:43;99129.81;;;10.11;100.00
70930;BME280;58588;48.102;19.682;2023-02-21T08:35:48;99136.75;;;10.20;100.00
70930;BME280;58588;48.102;19.682;2023-02-21T08:38:50;99129.97;;;10.24;100.00
70930;BME280;58588;48.102;19.682;2023-02-21T08:41:53;99137.34;;;10.37;100.00
70930;BME280;58588;48.102;19.682;2023-02-21T08:44:55;99142.94;;;10.57;100.00
70930;BME280;58588;48.102;19.682;2023-02-21T08:47:58;99127.34;;;10.52;100.00
70930;BME280;58588;48.102;19.682;2023-02-21T08:51:00;99145.22;;;10.60;100.00
70930;BME280;58588;48.102;19.682;2023-02-21T08:54:03;99144.03;;;10.97;100.00
70930;BME280;58588;48.102;19.682;2023-02-21T08:57:07;99146.19;;;11.08;100.00
70930;BME280;58588;48.102;19.682;2023-02-21T09:00:12;99138.84;;;10.95;100.00
70930;BME280;58588;48.102;19.682;2023-02-21T09:03:14;99145.63;;;11.13;100.00
70930;BME280;58588;48.102;19.682;2023-02-21T09:06:16;99146.47;;;11.20;100.00
70930;BME280;58588;48.102;19.682;2023-02-21T09:09:19;99150.03;;;11.27;100.00
70930;BME280;58588;48.102;19.682;2023-02-21T09:12:23;99142.75;;;11.62;100.00
70930;BME280;58588;48.102;19.682;2023-02-21T09:15:25;99154.09;;;11.44;99.71
70930;BME280;58588;48.102;19.682;2023-02-21T09:18:27;99169.25;;;11.87;100.00
70930;BME280;58588;48.102;19.682;2023-02-21T09:21:30;99146.31;;;11.69;99.22
70930;BME280;58588;48.102;19.682;2023-02-21T09:24:33;99150.44;;;12.07;98.57
70930;BME280;58588;48.102;19.682;2023-02-21T09:27:37;99149.03;;;12.30;96.49
70930;BME280;58588;48.102;19.682;2023-02-21T09:30:39;99152.91;;;12.01;95.33
70930;BME280;58588;48.102;19.682;2023-02-21T09:33:41;99160.19;;;12.01;96.56
70930;BME280;58588;48.102;19.682;2023-02-21T09:36:44;99147.09;;;12.04;96.05
70930;BME280;58588;48.102;19.682;2023-02-21T09:39:50;99159.41;;;12.33;93.61
70930;BME280;58588;48.102;19.682;2023-02-21T09:42:56;99161.13;;;12.48;93.11
70930;BME280;58588;48.102;19.682;2023-02-21T09:46:02;99166.91;;;12.45;91.82
70930;BME280;58588;48.102;19.682;2023-02-21T09:49:11;99164.03;;;12.86;91.54
70930;BME280;58588;48.102;19.682;2023-02-21T09:52:20;99175.06;;;12.84;90.65
70930;BME280;58588;48.102;19.682;2023-02-21T09:55:28;99174.44;;;12.96;89.37
70930;BME280;58588;48.102;19.682;2023-02-21T09:58:31;99168.81;;;12.77;87.66
70930;BME280;58588;48.102;19.682;2023-02-21T10:01:46;99154.44;;;13.03;88.30
70930;BME280;58588;48.102;19.682;2023-02-21T10:04:58;99157.34;;;13.15;87.88
70930;BME280;58588;48.102;19.682;2023-02-21T10:08:06;99158.63;;;12.93;86.35
70930;BME280;58588;48.102;19.682;2023-02-21T10:11:24;99164.03;;;12.86;85.60
70930;BME280;58588;48.102;19.682;2023-02-21T10:14:42;99170.69;;;13.10;88.25
70930;BME280;58588;48.102;19.682;2023-02-21T10:17:56;99172.91;;;13.53;88.32
70930;BME280;58588;48.102;19.682;2023-02-21T10:21:03;99185.34;;;13.74;87.71
70930;BME280;58588;48.102;19.682;2023-02-21T10:24:12;99166.47;;;13.99;84.59
70930;BME280;58588;48.102;19.682;2023-02-21T10:27:17;99166.75;;;13.84;83.85
70930;BME280;58588;48.102;19.682;2023-02-21T10:30:26;99157.44;;;14.11;85.11
70930;BME280;58588;48.102;19.682;2023-02-21T10:33:31;99171.84;;;13.60;83.65
70930;BME280;58588;48.102;19.682;2023-02-21T10:36:35;99164.41;;;13.94;84.28
70930;BME280;58588;48.102;19.682;2023-02-21T10:39:40;99162.50;;;14.01;84.45
70930;BME280;58588;48.102;19.682;2023-02-21T10:42:49;99168.81;;;14.27;83.88
70930;BME280;58588;48.102;19.682;2023-02-21T10:45:58;99163.84;;;13.79;82.02
70930;BME280;58588;48.102;19.682;2023-02-21T10:49:19;99162.25;;;14.48;85.21
70930;BME280;58588;48.102;19.682;2023-02-21T10:52:22;99173.28;;;14.53;82.90
70930;BME280;58588;48.102;19.682;2023-02-21T10:55:24;99176.00;;;14.46;82.31
70930;BME280;58588;48.102;19.682;2023-02-21T10:58:26;99164.66;;;13.86;81.41
70930;BME280;58588;48.102;19.682;2023-02-21T11:01:41;99164.38;;;13.56;83.59
70930;BME280;58588;48.102;19.682;2023-02-21T11:04:44;99164.44;;;13.23;83.03
70930;BME280;58588;48.102;19.682;2023-02-21T11:07:56;99152.94;;;13.99;83.80
70930;BME280;58588;48.102;19.682;2023-02-21T11:10:59;99147.47;;;14.05;82.91
70930;BME280;58588;48.102;19.682;2023-02-21T11:14:23;99151.66;;;14.33;82.69
70930;BME280;58588;48.102;19.682;2023-02-21T11:17:28;99178.53;;;13.51;82.78
70930;BME280;58588;48.102;19.682;2023-02-21T11:20:31;99164.13;;;13.64;84.12
70930;BME280;58588;48.102;19.682;2023-02-21T11:23:33;99167.22;;;13.74;84.02
70930;BME280;58588;48.102;19.682;2023-02-21T11:26:43;99160.03;;;13.93;84.92
70930;BME280;58588;48.102;19.682;2023-02-21T11:29:48;99154.34;;;13.63;84.48
70930;BME280;58588;48.102;19.682;2023-02-21T11:32:55;99157.41;;;14.18;83.21
70930;BME280;58588;48.102;19.682;2023-02-21T11:36:09;99158.94;;;14.39;82.76
70930;BME280;58588;48.102;19.682;2023-02-21T11:39:15;99154.59;;;14.31;81.78
70930;BME280;58588;48.102;19.682;2023-02-21T11:42:27;99149.91;;;14.45;80.98
70930;BME280;58588;48.102;19.682;2023-02-21T11:45:29;99170.91;;;14.63;80.13
70930;BME280;58588;48.102;19.682;2023-02-21T11:48:38;99152.03;;;14.11;80.68
70930;BME280;58588;48.102;19.682;2023-02-21T11:51:47;99153.72;;;14.06;81.70
70930;BME280;58588;48.102;19.682;2023-02-21T11:54:50;99149.41;;;13.98;80.40
70930;BME280;58588;48.102;19.682;2023-02-21T11:58:03;99148.66;;;14.54;81.95
70930;BME280;58588;48.102;19.682;2023-02-21T12:01:10;99151.13;;;14.81;81.11
70930;BME280;58588;48.102;19.682;2023-02-21T12:04:36;99156.84;;;13.58;82.51
70930;BME280;58588;48.102;19.682;2023-02-21T12:07:45;99160.00;;;13.48;85.02
70930;BME280;58588;48.102;19.682;2023-02-21T12:10:59;99153.78;;;13.34;84.96
70930;BME280;58588;48.102;19.682;2023-02-21T12:14:18;99145.50;;;13.81;85.80
70930;BME280;58588;48.102;19.682;2023-02-21T12:17:37;99147.59;;;13.85;83.43
70930;BME280;58588;48.102;19.682;2023-02-21T12:21:05;99146.09;;;13.38;84.79
70930;BME280;58588;48.102;19.682;2023-02-21T12:24:23;99134.75;;;13.54;85.29
70930;BME280;58588;48.102;19.682;2023-02-21T12:27:40;99140.69;;;13.25;84.97
70930;BME280;58588;48.102;19.682;2023-02-21T12:31:07;99139.00;;;13.17;85.93
70930;BME280;58588;48.102;19.682;2023-02-21T12:34:24;99131.94;;;13.29;86.19
70930;BME280;58588;48.102;19.682;2023-02-21T12:37:35;99134.00;;;13.41;86.72
70930;BME280;58588;48.102;19.682;2023-02-21T12:40:47;99131.66;;;13.96;83.54
70930;BME280;58588;48.102;19.682;2023-02-21T12:44:00;99122.19;;;13.73;84.51
70930;BME280;58588;48.102;19.682;2023-02-21T12:47:10;99110.19;;;13.49;86.29
70930;BME280;58588;48.102;19.682;2023-02-21T12:50:17;99119.44;;;13.28;85.22
70930;BME280;58588;48.102;19.682;2023-02-21T12:53:25;99111.91;;;13.44;86.97
70930;BME280;58588;48.102;19.682;2023-02-21T12:56:34;99112.94;;;13.43;86.00
70930;BME280;58588;48.102;19.682;2023-02-21T12:59:53;99107.72;;;13.92;85.59
70930;BME280;58588;48.102;19.682;2023-02-21T13:03:02;99114.41;;;13.90;83.89
70930;BME280;58588;48.102;19.682;2023-02-21T13:06:10;99111.91;;;14.20;83.32
70930;BME280;58588;48.102;19.682;2023-02-21T13:09:23;99114.00;;;13.86;82.72
70930;BME280;58588;48.102;19.682;2023-02-21T13:12:34;99114.34;;;13.97;83.08
70930;BME280;58588;48.102;19.682;2023-02-21T13:15:36;99121.66;;;13.96;82.86
70930;BME280;58588;48.102;19.682;2023-02-21T13:18:44;99121.50;;;13.84;84.22
70930;BME280;58588;48.102;19.682;2023-02-21T13:21:58;99118.97;;;13.89;84.93
70930;BME280;58588;48.102;19.682;2023-02-21T13:25:14;99118.22;;;13.76;85.04
70930;BME280;58588;48.102;19.682;2023-02-21T13:28:23;99109.19;;;13.50;85.73
70930;BME280;58588;48.102;19.682;2023-02-21T13:31:27;99134.19;;;13.46;86.72
70930;BME280;58588;48.102;19.682;2023-02-21T13:34:38;99134.22;;;13.39;87.96
70930;BME280;58588;48.102;19.682;2023-02-21T13:37:44;99134.41;;;13.31;87.88
70930;BME280;58588;48.102;19.682;2023-02-21T13:40:52;99146.75;;;13.13;89.37
70930;BME280;58588;48.102;19.682;2023-02-21T13:43:55;99135.91;;;13.00;89.39
70930;BME280;58588;48.102;19.682;2023-02-21T13:47:16;99145.28;;;12.98;90.22
70930;BME280;58588;48.102;19.682;2023-02-21T13:50:46;99148.59;;;13.00;92.23
70930;BME280;58588;48.102;19.682;2023-02-21T13:54:07;99141.13;;;12.82;91.83
70930;BME280;58588;48.102;19.682;2023-02-21T13:57:30;99151.13;;;12.75;91.40
70930;BME280;58588;48.102;19.682;2023-02-21T14:00:47;99141.75;;;12.77;91.57
70930;BME280;58588;48.102;19.682;2023-02-21T14:03:50;99145.28;;;12.71;92.44
70930;BME280;58588;48.102;19.682;2023-02-21T14:06:55;99152.38;;;12.59;93.09
70930;BME280;58588;48.102;19.682;2023-02-21T14:09:58;99150.31;;;12.61;94.14
70930;BME280;58588;48.102;19.682;2023-02-21T14:13:07;99135.91;;;12.34;93.81
70930;BME280;58588;48.102;19.682;2023-02-21T14:16:22;99144.47;;;12.51;94.65
70930;BME280;58588;48.102;19.682;2023-02-21T14:19:26;99149.25;;;12.49;94.96
70930;BME280;58588;48.102;19.682;2023-02-21T14:22:35;99152.13;;;12.41;96.58
70930;BME280;58588;48.102;19.682;2023-02-21T14:25:37;99151.31;;;12.40;98.06
70930;BME280;58588;48.102;19.682;2023-02-21T14:29:11;99144.84;;;12.35;98.94
70930;BME280;58588;48.102;19.682;2023-02-21T14:32:26;99142.97;;;12.28;100.00
70930;BME280;58588;48.102;19.682;2023-02-21T14:35:32;99144.84;;;12.15;99.81
70930;BME280;58588;48.102;19.682;2023-02-21T14:38:39;99145.28;;;12.25;99.82
70930;BME280;58588;48.102;19.682;2023-02-21T14:41:53;99144.00;;;12.14;100.00
70930;BME280;58588;48.102;19.682;2023-02-21T14:45:18;99148.78;;;12.05;100.00
70930;BME280;58588;48.102;19.682;2023-02-21T14:52:22;99157.88;;;12.04;100.00
70930;BME280;58588;48.102;19.682;2023-02-21T14:55:55;99154.59;;;12.09;100.00
70930;BME280;58588;48.102;19.682;2023-02-21T14:59:35;99158.53;;;12.07;100.00
70930;BME280;58588;48.102;19.682;2023-02-21T15:02:52;99158.69;;;11.98;100.00
70930;BME280;58588;48.102;19.682;2023-02-21T15:06:03;99149.75;;;11.91;100.00
70930;BME280;58588;48.102;19.682;2023-02-21T15:09:11;99149.78;;;11.98;100.00
70930;BME280;58588;48.102;19.682;2023-02-21T15:12:15;99170.31;;;11.92;100.00
70930;BME280;58588;48.102;19.682;2023-02-21T15:15:21;99167.25;;;12.02;100.00
70930;BME280;58588;48.102;19.682;2023-02-21T15:18:29;99159.97;;;12.02;100.00
70930;BME280;58588;48.102;19.682;2023-02-21T15:21:32;99164.91;;;11.86;100.00
70930;BME280;58588;48.102;19.682;2023-02-21T15:24:34;99162.44;;;11.91;100.00
70930;BME280;58588;48.102;19.682;2023-02-21T15:27:39;99163.50;;;11.96;100.00
70930;BME280;58588;48.102;19.682;2023-02-21T15:31:03;99158.03;;;11.83;100.00
70930;BME280;58588;48.102;19.682;2023-02-21T15:34:17;99163.50;;;11.96;100.00
70930;BME280;58588;48.102;19.682;2023-02-21T15:37:23;99166.81;;;11.98;100.00
70930;BME280;58588;48.102;19.682;2023-02-21T15:40:26;99164.28;;;11.84;100.00
70930;BME280;58588;48.102;19.682;2023-02-21T15:43:38;99171.78;;;11.88;100.00
70930;BME280;58588;48.102;19.682;2023-02-21T15:46:47;99172.94;;;11.79;100.00
70930;BME280;58588;48.102;19.682;2023-02-21T15:49:59;99176.16;;;11.89;100.00
70930;BME280;58588;48.102;19.682;2023-02-21T15:53:14;99181.66;;;11.74;100.00
70930;BME280;58588;48.102;19.682;2023-02-21T15:56:19;99183.72;;;11.72;100.00
70930;BME280;58588;48.102;19.682;2023-02-21T15:59:25;99183.72;;;11.72;100.00
70930;BME280;58588;48.102;19.682;2023-02-21T16:02:27;99183.09;;;11.70;100.00
70930;BME280;58588;48.102;19.682;2023-02-21T16:05:31;99177.69;;;11.70;100.00
70930;BME280;58588;48.102;19.682;2023-02-21T16:08:34;99180.78;;;11.67;100.00
70930;BME280;58588;48.102;19.682;2023-02-21T16:11:39;99182.44;;;11.68;100.00
70930;BME280;58588;48.102;19.682;2023-02-21T16:14:44;99190.94;;;11.59;100.00
70930;BME280;58588;48.102;19.682;2023-02-21T16:17:51;99192.56;;;11.53;100.00
70930;BME280;58588;48.102;19.682;2023-02-21T16:21:00;99188.63;;;11.56;100.00
70930;BME280;58588;48.102;19.682;2023-02-21T16:27:30;99185.25;;;11.47;100.00
70930;BME280;58588;48.102;19.682;2023-02-21T16:30:32;99192.28;;;11.41;100.00
70930;BME280;58588;48.102;19.682;2023-02-21T16:33:35;99184.34;;;11.33;100.00
70930;BME280;58588;48.102;19.682;2023-02-21T16:36:39;99190.09;;;11.23;100.00
70930;BME280;58588;48.102;19.682;2023-02-21T16:39:41;99192.72;;;11.10;100.00